createdAt,value
2018-04-30T00:00:36.453Z,10.36
2018-04-30T00:03:04.871Z,10.30
2018-04-30T00:05:35.023Z,10.22
2018-04-30T00:08:03.749Z,10.15
2018-04-30T00:10:32.431Z,10.11
2018-04-30T00:13:01.773Z,10.13
2018-04-30T00:15:31.201Z,10.20
2018-04-30T00:17:59.615Z,10.26
2018-04-30T00:20:28.626Z,10.32
2018-04-30T00:23:00.771Z,10.34
2018-04-30T00:25:30.100Z,10.34
2018-04-30T00:27:59.586Z,10.35
2018-04-30T00:30:28.823Z,10.38
2018-04-30T00:32:57.561Z,10.38
2018-04-30T00:35:26.602Z,10.38
2018-04-30T00:37:56.642Z,10.41
2018-04-30T00:40:25.004Z,10.39
2018-04-30T00:42:54.749Z,10.38
2018-04-30T00:45:24.058Z,10.38
2018-04-30T00:47:55.833Z,10.37
2018-04-30T00:50:26.161Z,10.34
2018-04-30T00:52:55.623Z,10.34
2018-04-30T00:55:25.117Z,10.28
2018-04-30T00:57:57.281Z,10.25
2018-04-30T01:00:26.171Z,10.24
2018-04-30T01:02:55.461Z,10.23
2018-04-30T01:05:24.883Z,10.19
2018-04-30T01:07:54.428Z,10.16
2018-04-30T01:10:23.636Z,10.12
2018-04-30T01:12:54.473Z,10.13
2018-04-30T01:15:23.978Z,10.08
2018-04-30T01:17:54.043Z,10.07
2018-04-30T01:20:23.252Z,10.06
2018-04-30T01:22:52.269Z,10.07
2018-04-30T01:25:20.711Z,10.10
2018-04-30T01:27:49.509Z,10.11
2018-04-30T01:30:20.588Z,10.09
2018-04-30T01:32:49.484Z,10.05
2018-04-30T01:35:17.968Z,10.04
2018-04-30T01:37:46.765Z,10.06
2018-04-30T01:40:17.419Z,10.05
2018-04-30T01:42:46.101Z,10.02
2018-04-30T01:45:15.753Z,9.97
2018-04-30T01:47:44.781Z,9.95
2018-04-30T01:50:13.227Z,9.91
2018-04-30T01:52:41.571Z,9.89
2018-04-30T01:55:10.028Z,9.89
2018-04-30T01:57:39.323Z,9.89
2018-04-30T02:00:07.763Z,9.87
2018-04-30T02:02:38.015Z,9.88
2018-04-30T02:05:06.613Z,9.89
2018-04-30T02:07:34.983Z,9.86
2018-04-30T02:10:03.893Z,9.84
2018-04-30T02:12:33.553Z,9.85
2018-04-30T02:15:02.884Z,9.87
2018-04-30T02:17:31.814Z,9.89
2018-04-30T02:20:01.571Z,9.90
2018-04-30T02:22:29.936Z,9.89
2018-04-30T02:24:58.915Z,9.87
2018-04-30T02:27:28.251Z,9.84
2018-04-30T02:29:56.805Z,9.84
2018-04-30T02:32:25.156Z,9.80
2018-04-30T02:34:54.557Z,9.72
2018-04-30T02:37:23.372Z,9.61
2018-04-30T02:39:52.471Z,9.54
2018-04-30T02:42:22.390Z,9.52
2018-04-30T02:44:51.731Z,9.48
2018-04-30T02:47:21.232Z,9.46
2018-04-30T02:49:49.956Z,9.44
2018-04-30T02:52:18.493Z,9.45
2018-04-30T02:54:46.851Z,9.46
2018-04-30T02:57:15.437Z,9.48
2018-04-30T02:59:44.793Z,9.49
2018-04-30T03:02:14.309Z,9.49
2018-04-30T03:04:42.663Z,9.48
2018-04-30T03:07:11.091Z,9.51
2018-04-30T03:09:39.560Z,9.53
2018-04-30T03:12:07.903Z,9.57
2018-04-30T03:14:37.838Z,9.59
2018-04-30T03:17:07.173Z,9.59
2018-04-30T03:19:35.579Z,9.58
2018-04-30T03:22:04.051Z,9.53
2018-04-30T03:24:32.431Z,9.52
2018-04-30T03:27:00.793Z,9.53
2018-04-30T03:29:29.514Z,9.55
2018-04-30T03:31:57.996Z,9.57
2018-04-30T03:34:26.675Z,9.59
2018-04-30T03:36:55.033Z,9.59
2018-04-30T03:39:24.174Z,9.61
2018-04-30T03:41:54.051Z,9.61
2018-04-30T03:44:22.726Z,9.62
2018-04-30T03:46:51.540Z,9.61
2018-04-30T03:49:20.345Z,9.60
2018-04-30T03:51:48.700Z,9.60
2018-04-30T03:54:17.811Z,9.60
2018-04-30T03:56:46.436Z,9.63
2018-04-30T03:59:15.360Z,9.65
2018-04-30T04:01:55.473Z,9.66
2018-04-30T04:04:35.811Z,9.69
2018-04-30T04:07:04.269Z,9.71
2018-04-30T04:09:34.035Z,9.79
2018-04-30T04:12:02.850Z,9.95
2018-04-30T04:14:31.281Z,10.17
2018-04-30T04:16:59.643Z,10.52
2018-04-30T04:19:28.020Z,10.72
2018-04-30T04:21:56.387Z,10.80
2018-04-30T04:24:25.072Z,10.82
2018-04-30T04:26:53.499Z,10.83
2018-04-30T04:29:22.314Z,10.80
2018-04-30T04:31:51.338Z,10.81
2018-04-30T04:34:19.760Z,10.89
2018-04-30T04:36:48.660Z,11.06
2018-04-30T04:39:17.395Z,11.21
2018-04-30T04:41:46.605Z,11.19
2018-04-30T04:44:15.104Z,11.10
2018-04-30T04:46:43.516Z,11.07
2018-04-30T04:49:12.394Z,11.03
2018-04-30T04:51:41.393Z,11.07
2018-04-30T04:54:11.030Z,11.17
2018-04-30T04:56:39.464Z,11.10
2018-04-30T04:59:07.974Z,11.03
2018-04-30T05:01:37.376Z,11.13
2018-04-30T05:04:05.863Z,11.23
2018-04-30T05:06:34.233Z,11.26
2018-04-30T05:09:02.594Z,11.28
2018-04-30T05:11:31.711Z,11.36
2018-04-30T05:14:00.653Z,11.43
2018-04-30T05:16:29.113Z,11.52
2018-04-30T05:18:57.687Z,11.59
2018-04-30T05:21:26.062Z,11.64
2018-04-30T05:23:54.956Z,11.74
2018-04-30T05:26:23.323Z,11.87
2018-04-30T05:28:51.772Z,12.00
2018-04-30T05:31:20.131Z,12.09
2018-04-30T05:33:50.342Z,12.14
2018-04-30T05:36:18.681Z,12.26
2018-04-30T05:38:47.168Z,12.33
2018-04-30T05:41:16.174Z,12.42
2018-04-30T05:43:44.548Z,12.53
2018-04-30T05:46:13.156Z,12.70
2018-04-30T05:48:41.809Z,12.81
2018-04-30T05:51:10.500Z,12.91
2018-04-30T05:53:39.169Z,12.96
2018-04-30T05:56:07.615Z,13.04
2018-04-30T05:58:35.990Z,13.10
2018-04-30T06:01:04.596Z,13.13
2018-04-30T06:03:33.536Z,13.20
2018-04-30T06:06:01.898Z,13.23
2018-04-30T06:08:31.127Z,13.30
2018-04-30T06:10:59.927Z,13.30
2018-04-30T06:13:28.333Z,13.25
2018-04-30T06:15:56.912Z,13.28
2018-04-30T06:18:25.276Z,13.34
2018-04-30T06:20:53.644Z,13.40
2018-04-30T06:23:22.316Z,13.46
2018-04-30T06:25:51.521Z,13.56
2018-04-30T06:28:20.488Z,13.72
2018-04-30T06:30:49.304Z,13.83
2018-04-30T06:33:19.395Z,14.00
2018-04-30T06:35:48.306Z,14.15
2018-04-30T06:38:17.231Z,14.30
2018-04-30T06:40:45.591Z,14.34
2018-04-30T06:43:14.026Z,14.41
2018-04-30T06:45:42.827Z,14.49
2018-04-30T06:48:11.263Z,14.56
2018-04-30T06:50:40.226Z,14.62
2018-04-30T06:53:08.790Z,14.65
2018-04-30T06:55:37.335Z,14.66
2018-04-30T06:58:05.767Z,14.68
2018-04-30T07:00:34.203Z,14.71
2018-04-30T07:03:02.879Z,14.76
2018-04-30T07:05:31.302Z,14.78
2018-04-30T07:07:59.700Z,14.76
2018-04-30T07:10:28.054Z,14.79
2018-04-30T07:12:56.419Z,14.90
2018-04-30T07:15:24.947Z,15.05
2018-04-30T07:17:53.398Z,15.16
2018-04-30T07:20:22.043Z,15.25
2018-04-30T07:22:52.195Z,15.30
2018-04-30T07:25:21.473Z,15.38
2018-04-30T07:27:50.777Z,15.41
2018-04-30T07:30:19.456Z,15.44
2018-04-30T07:32:47.834Z,15.37
2018-04-30T07:35:16.678Z,15.39
2018-04-30T07:37:45.039Z,15.34
2018-04-30T07:40:13.952Z,15.40
2018-04-30T07:42:43.437Z,15.49
2018-04-30T07:45:12.028Z,15.63
2018-04-30T07:47:43.091Z,15.73
2018-04-30T07:50:12.829Z,15.85
2018-04-30T07:52:42.056Z,15.78
2018-04-30T07:55:11.634Z,15.74
2018-04-30T07:57:41.139Z,15.75
2018-04-30T08:00:09.664Z,15.81
2018-04-30T08:02:38.837Z,15.96
2018-04-30T08:05:07.989Z,16.14
2018-04-30T08:07:36.365Z,16.31
2018-04-30T08:10:04.954Z,16.43
2018-04-30T08:12:34.439Z,16.54
2018-04-30T08:15:04.428Z,16.58
2018-04-30T08:17:35.305Z,16.68
2018-04-30T08:20:03.663Z,16.65
2018-04-30T08:22:36.959Z,16.65
2018-04-30T08:25:05.919Z,16.66
2018-04-30T08:27:34.409Z,16.71
2018-04-30T08:30:03.285Z,16.64
2018-04-30T08:32:31.949Z,16.57
2018-04-30T08:35:00.398Z,16.48
2018-04-30T08:37:29.020Z,16.46
2018-04-30T08:39:57.459Z,16.36
2018-04-30T08:42:25.926Z,16.33
2018-04-30T08:44:56.104Z,16.30
2018-04-30T08:47:24.835Z,16.31
2018-04-30T08:49:53.194Z,16.30
2018-04-30T08:52:21.577Z,16.31
2018-04-30T08:54:50.219Z,16.38
2018-04-30T08:57:19.523Z,16.51
2018-04-30T08:59:48.387Z,16.63
2018-04-30T09:02:16.813Z,16.69
2018-04-30T09:04:45.165Z,16.68
2018-04-30T09:07:13.520Z,16.70
2018-04-30T09:09:42.109Z,16.71
2018-04-30T09:12:10.391Z,16.74
2018-04-30T09:14:40.002Z,16.91
2018-04-30T09:17:08.503Z,17.04
2018-04-30T09:19:37.215Z,17.12
2018-04-30T09:22:08.323Z,17.21
2018-04-30T09:24:37.652Z,17.22
2018-04-30T09:27:06.096Z,17.24
2018-04-30T09:29:35.457Z,17.36
2018-04-30T09:32:04.390Z,17.52
2018-04-30T09:34:32.765Z,17.70
2018-04-30T09:37:01.145Z,17.84
2018-04-30T09:39:29.519Z,18.03
2018-04-30T09:41:58.382Z,18.21
2018-04-30T09:44:26.742Z,18.33
2018-04-30T09:46:55.447Z,18.52
2018-04-30T09:49:24.069Z,18.60
2018-04-30T09:51:52.429Z,18.62
2018-04-30T09:54:20.779Z,18.59
2018-04-30T09:56:49.127Z,18.51
2018-04-30T09:59:17.508Z,18.54
2018-04-30T10:01:46.090Z,18.55
2018-04-30T10:04:14.577Z,18.51
2018-04-30T10:06:45.930Z,18.43
2018-04-30T10:09:14.399Z,18.39
2018-04-30T10:11:43.147Z,18.40
2018-04-30T10:14:13.583Z,18.57
2018-04-30T10:16:42.034Z,18.73
2018-04-30T10:21:44.092Z,19.08
2018-04-30T10:24:16.562Z,19.22
2018-04-30T10:26:44.997Z,19.42
2018-04-30T10:29:13.373Z,19.52
2018-04-30T10:31:41.851Z,19.47
2018-04-30T10:34:11.597Z,19.52
2018-04-30T10:36:40.076Z,19.51
2018-04-30T10:39:08.462Z,19.54
2018-04-30T10:41:37.143Z,19.57
2018-04-30T10:44:05.665Z,19.65
2018-04-30T10:46:34.068Z,19.67
2018-04-30T10:49:02.436Z,19.68
2018-04-30T10:51:31.371Z,19.77
2018-04-30T10:53:59.765Z,19.96
2018-04-30T10:56:28.136Z,20.07
2018-04-30T10:58:56.863Z,20.28
2018-04-30T11:01:25.251Z,20.38
2018-04-30T11:03:53.631Z,20.53
2018-04-30T11:06:23.675Z,20.84
2018-04-30T11:08:52.411Z,21.01
2018-04-30T11:11:20.793Z,21.12
2018-04-30T11:13:49.259Z,21.26
2018-04-30T11:16:17.962Z,21.34
2018-04-30T11:18:46.376Z,21.39
2018-04-30T11:21:14.776Z,21.45
2018-04-30T11:23:43.522Z,21.57
2018-04-30T11:26:11.990Z,21.78
2018-04-30T11:28:40.791Z,21.98
2018-04-30T11:31:09.155Z,22.11
2018-04-30T11:33:37.518Z,22.17
2018-04-30T11:36:06.927Z,22.33
2018-04-30T11:38:35.497Z,22.48
2018-04-30T11:41:04.829Z,22.59
2018-04-30T11:43:33.199Z,22.75
2018-04-30T11:46:01.568Z,22.81
2018-04-30T11:48:29.970Z,22.78
2018-04-30T11:50:58.340Z,22.85
2018-04-30T11:53:26.864Z,23.05
2018-04-30T11:55:55.580Z,23.25
2018-04-30T11:58:24.278Z,23.37
2018-04-30T12:00:52.753Z,23.44
2018-04-30T12:03:21.177Z,23.11
2018-04-30T12:05:49.977Z,22.73
2018-04-30T12:08:18.757Z,22.44
2018-04-30T12:10:47.563Z,22.29
2018-04-30T12:13:16.440Z,22.33
2018-04-30T12:15:44.800Z,22.76
2018-04-30T12:18:13.412Z,23.34
2018-04-30T12:20:41.890Z,23.88
2018-04-30T12:23:10.270Z,24.35
2018-04-30T12:25:38.672Z,24.70
2018-04-30T12:28:07.270Z,24.80
2018-04-30T12:30:36.057Z,25.27
2018-04-30T12:33:04.839Z,25.58
2018-04-30T12:35:33.352Z,25.60
2018-04-30T12:38:02.823Z,25.69
2018-04-30T12:40:31.197Z,25.98
2018-04-30T12:45:36.581Z,26.41
2018-04-30T12:48:06.218Z,27.05
2018-04-30T12:50:35.964Z,27.37
2018-04-30T12:53:05.290Z,27.81
2018-04-30T12:58:07.223Z,28.72
2018-04-30T13:00:35.643Z,29.08
2018-04-30T13:03:04.981Z,29.41
2018-04-30T13:05:34.597Z,29.56
2018-04-30T13:08:02.968Z,29.55
2018-04-30T13:10:31.923Z,29.62
2018-04-30T13:13:01.371Z,29.78
2018-04-30T13:15:34.554Z,30.05
2018-04-30T13:18:02.958Z,30.47
2018-04-30T13:20:33.899Z,30.16
2018-04-30T13:23:03.706Z,30.45
2018-04-30T13:27:11.780Z,30.33
2018-04-30T13:29:40.259Z,30.06
2018-04-30T13:32:08.668Z,29.71
2018-04-30T13:34:37.024Z,29.76
2018-04-30T13:37:05.389Z,29.88
2018-04-30T13:39:34.008Z,30.10
2018-04-30T13:42:02.360Z,30.31
2018-04-30T13:44:30.805Z,30.23
2018-04-30T13:46:59.167Z,29.74
2018-04-30T13:49:27.533Z,29.22
2018-04-30T13:51:55.892Z,28.64
2018-04-30T13:54:24.348Z,28.10
2018-04-30T13:56:53.655Z,27.55
2018-04-30T13:59:22.031Z,27.18
2018-04-30T14:01:50.586Z,26.93
2018-04-30T14:04:18.927Z,26.69
2018-04-30T14:06:47.643Z,26.38
2018-04-30T14:09:16.051Z,26.08
2018-04-30T14:11:44.419Z,25.82
2018-04-30T14:14:12.786Z,25.52
2018-04-30T14:16:41.139Z,25.25
2018-04-30T14:19:09.487Z,24.94
2018-04-30T14:21:38.196Z,24.73
2018-04-30T14:24:06.961Z,24.51
2018-04-30T14:26:36.042Z,24.32
2018-04-30T14:29:04.395Z,24.03
2018-04-30T14:31:32.753Z,23.73
2018-04-30T14:34:01.403Z,23.47
2018-04-30T14:36:30.117Z,23.22
